createdAt,value
2023-05-02T00:00:28.451Z,8.30
2023-05-02T00:01:28.741Z,7.20
2023-05-02T00:02:29.250Z,7.70
2023-05-02T00:03:29.586Z,7.80
2023-05-02T00:04:29.655Z,7.40
2023-05-02T00:05:29.931Z,7.40
2023-05-02T00:06:30.224Z,6.10
2023-05-02T00:07:30.490Z,7.00
2023-05-02T00:08:30.843Z,6.80
2023-05-02T00:09:31.078Z,7.50
2023-05-02T00:10:31.664Z,6.20
2023-05-02T00:11:31.631Z,6.90
2023-05-02T00:12:31.995Z,6.10
2023-05-02T00:13:32.252Z,8.00
2023-05-02T00:14:32.536Z,7.20
2023-05-02T00:15:32.800Z,7.30
2023-05-02T00:16:33.090Z,6.80
2023-05-02T00:17:33.638Z,6.10
2023-05-02T00:18:33.568Z,8.20
2023-05-02T00:19:33.837Z,6.40
2023-05-02T00:20:34.196Z,7.70
2023-05-02T00:21:34.491Z,7.20
2023-05-02T00:22:34.688Z,6.90
2023-05-02T00:23:34.957Z,6.80
2023-05-02T00:24:35.282Z,7.60
2023-05-02T00:25:35.606Z,7.00
2023-05-02T00:26:35.887Z,7.50
2023-05-02T00:27:36.146Z,6.40
2023-05-02T00:28:36.448Z,6.40
2023-05-02T00:29:36.676Z,8.70
2023-05-02T00:30:36.994Z,7.20
2023-05-02T00:31:37.386Z,9.80
2023-05-02T00:32:37.679Z,7.10
2023-05-02T00:33:37.775Z,7.70
2023-05-02T00:34:38.094Z,9.20
2023-05-02T00:35:38.372Z,7.60
2023-05-02T00:36:38.621Z,8.40
2023-05-02T00:37:38.948Z,6.90
2023-05-02T00:38:39.410Z,7.30
2023-05-02T00:39:39.535Z,7.70
2023-05-02T00:40:39.844Z,7.70
2023-05-02T00:41:40.165Z,7.90
2023-05-02T00:42:40.533Z,8.40
2023-05-02T00:43:40.769Z,8.60
2023-05-02T00:44:41.054Z,8.90
2023-05-02T00:45:41.307Z,8.20
2023-05-02T00:46:41.809Z,8.00
2023-05-02T00:47:42.483Z,8.40
2023-05-02T00:48:43.139Z,8.70
2023-05-02T00:49:42.626Z,9.80
2023-05-02T00:50:42.809Z,9.30
2023-05-02T00:51:43.169Z,8.80
2023-05-02T00:52:43.822Z,8.80
2023-05-02T00:53:43.666Z,8.80
2023-05-02T00:54:43.924Z,8.10
2023-05-02T00:55:44.251Z,8.20
2023-05-02T00:56:44.502Z,7.80
2023-05-02T00:57:44.860Z,8.60
2023-05-02T00:58:45.088Z,8.40
2023-05-02T00:59:45.408Z,9.30
2023-05-02T01:00:45.773Z,7.60
2023-05-02T01:01:45.971Z,8.00
2023-05-02T01:02:46.327Z,8.20
2023-05-02T01:03:46.530Z,8.40
2023-05-02T01:04:46.848Z,7.20
2023-05-02T01:05:47.101Z,7.80
2023-05-02T01:06:47.508Z,8.50
2023-05-02T01:07:47.660Z,8.30
2023-05-02T01:08:47.866Z,8.20
2023-05-02T01:09:48.268Z,8.40
2023-05-02T01:10:48.455Z,7.40
2023-05-02T01:11:48.820Z,7.60
2023-05-02T01:12:49.139Z,7.30
2023-05-02T01:13:49.404Z,7.60
2023-05-02T01:14:49.684Z,8.70
2023-05-02T01:15:49.982Z,9.00
2023-05-02T01:16:50.252Z,8.10
2023-05-02T01:17:50.558Z,8.20
2023-05-02T01:18:50.881Z,8.20
2023-05-02T01:19:51.172Z,7.70
2023-05-02T01:20:51.403Z,8.10
2023-05-02T01:21:51.699Z,9.00
2023-05-02T01:22:52.269Z,9.20
2023-05-02T01:23:52.292Z,7.50
2023-05-02T01:24:52.541Z,8.90
2023-05-02T01:25:52.899Z,7.60
2023-05-02T01:26:53.129Z,8.60
2023-05-02T01:27:53.506Z,8.70
2023-05-02T01:28:53.770Z,9.10
2023-05-02T01:29:54.012Z,8.90
2023-05-02T01:30:54.342Z,10.30
2023-05-02T01:31:54.675Z,7.40
2023-05-02T01:32:54.981Z,7.90
2023-05-02T01:33:55.280Z,6.80
2023-05-02T01:34:55.514Z,8.00
2023-05-02T01:35:55.950Z,7.40
2023-05-02T01:36:56.197Z,7.10
2023-05-02T01:37:56.366Z,9.00
2023-05-02T01:38:56.636Z,7.40
2023-05-02T01:39:57.071Z,7.10
2023-05-02T01:40:57.268Z,7.70
2023-05-02T01:41:57.547Z,8.70
2023-05-02T01:42:57.790Z,10.40
2023-05-02T01:43:58.105Z,10.70
2023-05-02T01:44:58.528Z,9.10
2023-05-02T01:45:59.056Z,11.50
2023-05-02T01:46:59.132Z,14.90
2023-05-02T01:47:59.427Z,10.40
2023-05-02T01:48:59.553Z,9.90
2023-05-02T01:50:00.020Z,11.00
2023-05-02T01:51:00.135Z,9.20
2023-05-02T01:52:00.529Z,8.40
2023-05-02T01:53:00.847Z,9.40
2023-05-02T01:54:01.024Z,10.20
2023-05-02T01:55:01.253Z,9.60
2023-05-02T01:56:01.640Z,8.60
2023-05-02T01:57:01.902Z,9.90
2023-05-02T01:58:02.248Z,9.10
2023-05-02T01:59:02.457Z,8.80
2023-05-02T02:00:03.225Z,10.50
2023-05-02T02:01:03.943Z,8.40
2023-05-02T02:02:03.366Z,9.90
2023-05-02T02:03:03.709Z,11.20
2023-05-02T02:04:04.186Z,9.90
2023-05-02T02:05:04.239Z,11.30
2023-05-02T02:06:04.657Z,10.10
2023-05-02T02:07:04.856Z,10.60
2023-05-02T02:08:05.233Z,10.10
2023-05-02T02:09:09.496Z,11.10
2023-05-02T02:10:05.816Z,9.30
2023-05-02T02:11:05.973Z,9.50
2023-05-02T02:12:06.298Z,10.20
2023-05-02T02:13:06.592Z,8.70
2023-05-02T02:14:06.956Z,10.20
2023-05-02T02:15:07.230Z,10.90
2023-05-02T02:16:07.554Z,11.10
2023-05-02T02:17:07.967Z,12.10
2023-05-02T02:18:08.037Z,10.60
2023-05-02T02:19:08.287Z,11.50
2023-05-02T02:20:08.626Z,10.70
2023-05-02T02:21:08.935Z,11.20
2023-05-02T02:22:09.362Z,11.90
2023-05-02T02:23:09.475Z,13.60
2023-05-02T02:24:09.791Z,13.80
2023-05-02T02:25:10.150Z,13.30
2023-05-02T02:26:10.451Z,13.10
2023-05-02T02:27:10.742Z,13.00
2023-05-02T02:28:11.032Z,15.70
2023-05-02T02:29:11.346Z,14.80
2023-05-02T02:30:11.756Z,15.40
2023-05-02T02:31:11.961Z,17.40
2023-05-02T02:32:12.317Z,16.40
2023-05-02T02:33:12.541Z,16.70
2023-05-02T02:34:13.000Z,16.20
2023-05-02T02:35:13.133Z,17.00
2023-05-02T02:36:13.469Z,16.70
2023-05-02T02:37:13.888Z,17.10
2023-05-02T02:38:14.065Z,17.10
2023-05-02T02:39:14.377Z,15.40
2023-05-02T02:40:14.628Z,16.20
2023-05-02T02:41:14.931Z,16.20
2023-05-02T02:42:15.348Z,16.70
2023-05-02T02:43:15.595Z,16.00
2023-05-02T02:44:15.867Z,14.10
2023-05-02T02:45:16.176Z,16.70
2023-05-02T02:46:16.502Z,18.80
2023-05-02T02:47:16.804Z,17.10
2023-05-02T02:48:17.220Z,18.00
2023-05-02T02:49:17.320Z,17.00
2023-05-02T02:50:17.689Z,17.70
2023-05-02T02:51:17.977Z,18.20
2023-05-02T02:52:18.335Z,19.00
2023-05-02T02:53:18.693Z,17.50
2023-05-02T02:54:26.375Z,17.50
2023-05-02T02:55:20.192Z,18.30
2023-05-02T02:56:19.329Z,18.10
2023-05-02T02:57:19.697Z,18.50
2023-05-02T02:58:19.995Z,16.70
2023-05-02T02:59:20.293Z,19.00
2023-05-02T03:00:20.652Z,18.80
2023-05-02T03:01:20.924Z,18.90
2023-05-02T03:02:21.209Z,18.30
2023-05-02T03:03:21.628Z,19.50
2023-05-02T03:04:22.042Z,19.10
2023-05-02T03:05:22.222Z,20.20
2023-05-02T03:06:22.593Z,19.20
2023-05-02T03:07:22.764Z,21.10
2023-05-02T03:08:23.262Z,18.00
2023-05-02T03:09:23.408Z,20.00
2023-05-02T03:10:23.729Z,20.60
2023-05-02T03:11:24.020Z,19.60
2023-05-02T03:12:24.415Z,21.50
2023-05-02T03:13:24.540Z,20.40
2023-05-02T03:14:24.839Z,20.10
2023-05-02T03:15:25.139Z,20.50
2023-05-02T03:16:25.526Z,20.80
2023-05-02T03:17:26.381Z,20.00
2023-05-02T03:18:26.073Z,19.30
2023-05-02T03:19:26.350Z,20.30
2023-05-02T03:20:26.698Z,18.80
2023-05-02T03:21:26.803Z,20.80
2023-05-02T03:22:27.079Z,20.30
2023-05-02T03:23:27.396Z,18.80
2023-05-02T03:24:27.730Z,17.40
2023-05-02T03:25:28.161Z,17.30
2023-05-02T03:26:28.298Z,20.90
2023-05-02T03:27:28.563Z,18.40
2023-05-02T03:28:29.017Z,17.20
2023-05-02T03:29:29.135Z,19.00
2023-05-02T03:30:29.476Z,19.80
2023-05-02T03:31:29.834Z,19.20
2023-05-02T03:32:30.277Z,18.60
2023-05-02T03:33:30.345Z,19.50
2023-05-02T03:34:30.712Z,19.10
2023-05-02T03:35:30.820Z,18.60
2023-05-02T03:36:31.183Z,21.20
2023-05-02T03:37:31.435Z,20.60
2023-05-02T03:38:31.840Z,21.70
2023-05-02T03:39:31.914Z,19.80
2023-05-02T03:40:32.266Z,20.80
2023-05-02T03:41:32.612Z,21.50
2023-05-02T03:42:32.773Z,21.20
2023-05-02T03:43:33.038Z,23.00
2023-05-02T03:44:33.475Z,20.10
2023-05-02T03:45:33.612Z,21.60
2023-05-02T03:46:34.006Z,19.50
2023-05-02T03:47:34.260Z,21.00
2023-05-02T03:48:34.429Z,20.30
2023-05-02T03:49:34.803Z,20.00
2023-05-02T03:50:35.043Z,21.90
2023-05-02T03:51:35.377Z,22.40
2023-05-02T03:52:35.620Z,20.00
2023-05-02T03:53:35.894Z,22.10
2023-05-02T03:54:36.137Z,21.30
2023-05-02T03:55:36.494Z,21.20
2023-05-02T03:56:36.665Z,21.00
2023-05-02T03:57:37.030Z,20.10
2023-05-02T03:58:37.281Z,21.60
2023-05-02T03:59:37.437Z,20.10
2023-05-02T04:00:37.791Z,25.00
2023-05-02T04:01:38.065Z,21.10
2023-05-02T04:02:38.588Z,24.80
2023-05-02T04:03:38.782Z,24.10
2023-05-02T04:04:38.941Z,24.10
2023-05-02T04:05:39.159Z,23.20
2023-05-02T04:06:39.503Z,24.60
2023-05-02T04:07:39.689Z,23.10
2023-05-02T04:08:40.035Z,24.40
2023-05-02T04:09:40.281Z,24.20
2023-05-02T04:10:40.580Z,26.70
2023-05-02T04:11:40.816Z,23.40
2023-05-02T04:12:41.122Z,23.10
2023-05-02T04:13:41.305Z,23.50
2023-05-02T04:14:41.642Z,25.30
2023-05-02T04:15:41.955Z,27.10
2023-05-02T04:16:42.199Z,27.50
2023-05-02T04:17:42.390Z,27.20
2023-05-02T04:18:42.801Z,28.50
2023-05-02T04:19:43.933Z,27.30
2023-05-02T04:20:43.340Z,25.80
2023-05-02T04:21:43.612Z,24.70
2023-05-02T04:22:43.830Z,26.40
2023-05-02T04:23:44.159Z,27.80
2023-05-02T04:24:44.557Z,25.90
2023-05-02T04:25:44.867Z,25.70
2023-05-02T04:26:45.102Z,26.30
2023-05-02T04:27:45.304Z,29.40
2023-05-02T04:28:45.668Z,26.20
2023-05-02T04:29:46.058Z,25.40
2023-05-02T04:30:46.235Z,24.10
2023-05-02T04:31:46.434Z,25.70
2023-05-02T04:32:46.885Z,28.40
2023-05-02T04:33:47.040Z,28.90
2023-05-02T04:34:47.384Z,27.50
2023-05-02T04:35:47.578Z,29.50
2023-05-02T04:36:48.013Z,30.50
2023-05-02T04:37:48.245Z,31.50
2023-05-02T04:38:48.491Z,26.90
2023-05-02T04:39:48.731Z,27.30
2023-05-02T04:40:48.974Z,28.40
2023-05-02T04:41:49.204Z,27.90
2023-05-02T04:42:49.587Z,26.50
2023-05-02T04:43:49.730Z,27.90
2023-05-02T04:44:49.936Z,27.00
2023-05-02T04:45:50.359Z,28.60
2023-05-02T04:46:50.697Z,29.60
2023-05-02T04:47:50.999Z,28.20
2023-05-02T04:48:51.261Z,27.00
2023-05-02T04:49:51.622Z,29.00
2023-05-02T04:50:51.803Z,28.40
2023-05-02T04:51:52.016Z,27.50
2023-05-02T04:52:52.431Z,26.80
2023-05-02T04:53:52.641Z,28.20
2023-05-02T04:54:53.035Z,26.10
2023-05-02T04:55:53.349Z,25.60
2023-05-02T04:56:53.573Z,25.30
2023-05-02T04:57:54.350Z,30.20
2023-05-02T04:58:54.183Z,27.50
2023-05-02T04:59:54.430Z,27.80
2023-05-02T05:00:54.729Z,26.30
2023-05-02T05:01:54.971Z,27.20
2023-05-02T05:02:55.297Z,24.80
2023-05-02T05:03:55.477Z,30.30
2023-05-02T05:04:55.811Z,22.90
2023-05-02T05:05:56.153Z,25.40
2023-05-02T05:06:56.395Z,27.40
2023-05-02T05:07:56.648Z,24.90
2023-05-02T05:08:56.815Z,25.60
2023-05-02T05:09:57.232Z,24.30
2023-05-02T05:10:57.555Z,27.00
2023-05-02T05:11:57.782Z,27.60
2023-05-02T05:12:58.046Z,28.60
2023-05-02T05:13:58.310Z,24.80
2023-05-02T05:14:58.575Z,26.60
2023-05-02T05:15:58.804Z,27.00
2023-05-02T05:16:59.194Z,28.40
2023-05-02T05:17:59.455Z,26.90
2023-05-02T05:18:59.749Z,27.30
2023-05-02T05:20:00.250Z,28.80
2023-05-02T05:21:00.246Z,26.60
2023-05-02T05:22:00.472Z,31.00
2023-05-02T05:23:00.769Z,28.00
2023-05-02T05:24:00.992Z,26.60
2023-05-02T05:25:01.188Z,28.90
2023-05-02T05:26:01.539Z,27.90
2023-05-02T05:27:01.870Z,30.30
2023-05-02T05:28:02.233Z,29.20
2023-05-02T05:29:02.524Z,28.40
2023-05-02T05:30:02.927Z,29.80
2023-05-02T05:31:03.051Z,30.40
2023-05-02T05:32:03.673Z,31.50
2023-05-02T05:33:03.541Z,31.00
2023-05-02T05:34:04.014Z,31.80
2023-05-02T05:35:04.834Z,31.00
2023-05-02T05:36:04.411Z,32.60
2023-05-02T05:37:05.140Z,32.10
2023-05-02T05:38:04.932Z,33.30
2023-05-02T05:39:05.347Z,30.90
2023-05-02T05:40:05.681Z,34.20
2023-05-02T05:41:05.857Z,33.80
2023-05-02T05:42:06.270Z,34.00
2023-05-02T05:43:06.481Z,34.00
2023-05-02T05:44:06.849Z,35.00
2023-05-02T05:45:07.061Z,39.20
2023-05-02T05:46:07.310Z,38.80
2023-05-02T05:47:08.542Z,38.40
2023-05-02T05:48:07.892Z,38.80
2023-05-02T05:49:08.281Z,38.10
2023-05-02T05:50:08.504Z,38.10
2023-05-02T05:51:08.787Z,36.70
2023-05-02T05:52:09.009Z,40.20
2023-05-02T05:53:09.361Z,41.80
2023-05-02T05:54:09.653Z,35.90
2023-05-02T05:55:09.917Z,37.60
2023-05-02T05:56:10.274Z,36.90
2023-05-02T05:57:10.445Z,41.90
2023-05-02T05:58:10.759Z,40.80
2023-05-02T05:59:10.986Z,41.60
2023-05-02T06:00:11.305Z,42.70
2023-05-02T06:01:11.494Z,43.00
2023-05-02T06:02:11.881Z,41.70
2023-05-02T06:03:12.294Z,66.10
2023-05-02T06:04:12.560Z,41.80
2023-05-02T06:05:12.823Z,43.90
2023-05-02T06:06:13.181Z,43.60
2023-05-02T06:07:13.178Z,42.00
2023-05-02T06:08:13.413Z,45.60
2023-05-02T06:09:13.677Z,57.10
2023-05-02T06:10:13.972Z,46.40
2023-05-02T06:11:14.214Z,47.70
2023-05-02T06:12:14.450Z,51.50
2023-05-02T06:13:14.873Z,50.10
2023-05-02T06:14:15.139Z,48.60
2023-05-02T06:15:15.408Z,51.10
2023-05-02T06:16:15.629Z,47.10
2023-05-02T06:17:15.883Z,48.40
2023-05-02T06:18:16.138Z,49.60
2023-05-02T06:19:16.436Z,50.10
2023-05-02T06:20:18.536Z,48.20
2023-05-02T06:21:17.035Z,50.90
2023-05-02T06:22:17.239Z,53.60
2023-05-02T06:23:17.490Z,52.70
2023-05-02T06:24:17.804Z,51.60
2023-05-02T06:25:18.113Z,55.50
2023-05-02T06:26:18.312Z,53.70
2023-05-02T06:27:18.564Z,58.10
2023-05-02T06:28:18.885Z,54.80
2023-05-02T06:29:19.057Z,58.60
2023-05-02T06:30:19.314Z,57.40
2023-05-02T06:31:19.587Z,57.00
2023-05-02T06:32:19.839Z,56.60
2023-05-02T06:33:20.046Z,60.30
2023-05-02T06:34:20.268Z,60.30
2023-05-02T06:35:20.634Z,61.60
2023-05-02T06:36:20.894Z,62.20
2023-05-02T06:37:21.109Z,65.50
2023-05-02T06:38:21.452Z,65.30
2023-05-02T06:39:21.707Z,61.40
2023-05-02T06:40:21.908Z,56.30
2023-05-02T06:41:22.268Z,58.40
2023-05-02T06:42:22.572Z,60.60
2023-05-02T06:43:22.796Z,61.50
2023-05-02T06:44:23.039Z,59.90
2023-05-02T06:45:23.275Z,63.60
2023-05-02T06:46:23.571Z,61.20
2023-05-02T06:47:23.796Z,58.20
2023-05-02T06:48:24.119Z,61.30
2023-05-02T06:49:25.290Z,57.90
2023-05-02T06:50:24.651Z,63.70
2023-05-02T06:51:24.968Z,61.60
2023-05-02T06:52:25.152Z,61.40
2023-05-02T06:53:25.558Z,65.30
2023-05-02T06:54:25.856Z,65.00
2023-05-02T06:55:26.149Z,64.10
2023-05-02T06:56:26.414Z,63.40
2023-05-02T06:57:26.661Z,61.60
2023-05-02T06:58:26.956Z,63.80
2023-05-02T06:59:27.329Z,64.20
2023-05-02T07:00:27.665Z,63.10
2023-05-02T07:01:27.940Z,70.60
2023-05-02T07:02:28.275Z,62.70
2023-05-02T07:03:28.408Z,62.10
2023-05-02T07:04:28.630Z,62.80
2023-05-02T07:05:28.950Z,62.50
2023-05-02T07:06:29.190Z,62.00
2023-05-02T07:07:29.460Z,63.20
2023-05-02T07:08:29.707Z,65.00
2023-05-02T07:09:29.937Z,65.10
2023-05-02T07:10:30.279Z,63.00
2023-05-02T07:11:30.490Z,60.10
2023-05-02T07:12:30.725Z,59.40
2023-05-02T07:13:31.215Z,58.90
2023-05-02T07:14:31.336Z,56.80
2023-05-02T07:15:31.546Z,59.00
2023-05-02T07:16:31.809Z,54.20
2023-05-02T07:17:32.194Z,60.90
2023-05-02T07:18:32.371Z,60.30
2023-05-02T07:19:32.655Z,55.40
2023-05-02T07:20:32.892Z,57.50
2023-05-02T07:21:33.289Z,49.80
2023-05-02T07:22:33.535Z,53.80
2023-05-02T07:23:33.743Z,55.80
2023-05-02T07:24:34.082Z,55.00
2023-05-02T07:25:34.523Z,51.90
2023-05-02T07:26:34.743Z,53.80
2023-05-02T07:27:35.023Z,53.40
2023-05-02T07:28:35.282Z,56.90
2023-05-02T07:29:35.534Z,54.50
2023-05-02T07:30:35.903Z,51.80
2023-05-02T07:31:36.092Z,51.90
2023-05-02T07:32:36.347Z,53.60
2023-05-02T07:33:37.559Z,50.60
2023-05-02T07:34:36.943Z,46.80
2023-05-02T07:35:37.239Z,54.60
2023-05-02T07:36:37.515Z,55.50
2023-05-02T07:37:37.777Z,50.00
2023-05-02T07:38:38.011Z,50.90
2023-05-02T07:39:38.425Z,53.40
2023-05-02T07:40:38.693Z,53.40
2023-05-02T07:41:38.911Z,52.40
2023-05-02T07:42:39.242Z,53.50
2023-05-02T07:43:39.643Z,49.60
2023-05-02T07:44:40.188Z,48.70
2023-05-02T07:45:40.273Z,48.20
2023-05-02T07:46:40.688Z,49.00
2023-05-02T07:47:40.832Z,50.00
2023-05-02T07:48:41.219Z,48.70
2023-05-02T07:49:41.308Z,47.70
2023-05-02T07:50:41.557Z,45.60
2023-05-02T07:51:41.856Z,49.40
2023-05-02T07:52:42.170Z,44.20
2023-05-02T07:53:42.430Z,44.10
2023-05-02T07:54:42.678Z,45.30
2023-05-02T07:55:43.002Z,46.90
2023-05-02T07:56:43.263Z,49.70
2023-05-02T07:57:43.487Z,48.70
2023-05-02T07:58:43.893Z,49.80
2023-05-02T07:59:44.103Z,47.10
2023-05-02T08:00:44.488Z,47.50
2023-05-02T08:01:44.702Z,46.00
2023-05-02T08:02:45.111Z,48.10
2023-05-02T08:03:45.491Z,45.90
2023-05-02T08:04:45.635Z,48.90
2023-05-02T08:05:46.055Z,49.20
2023-05-02T08:06:46.330Z,50.20
2023-05-02T08:07:46.587Z,46.80
2023-05-02T08:08:46.877Z,46.40
2023-05-02T08:09:47.234Z,45.90
2023-05-02T08:10:47.440Z,44.30
2023-05-02T08:11:47.732Z,46.30
2023-05-02T08:12:48.128Z,43.80
2023-05-02T08:13:48.233Z,44.60
2023-05-02T08:14:48.510Z,46.30
2023-05-02T08:15:48.832Z,45.80
2023-05-02T08:16:49.154Z,44.00
2023-05-02T08:17:50.552Z,47.00
2023-05-02T08:18:49.608Z,48.80
2023-05-02T08:19:49.829Z,50.60
2023-05-02T08:20:50.183Z,50.10
2023-05-02T08:21:50.502Z,51.00
2023-05-02T08:22:51.020Z,51.90
2023-05-02T08:23:51.036Z,51.80
2023-05-02T08:24:51.289Z,53.30
2023-05-02T08:25:51.511Z,53.40
2023-05-02T08:26:51.916Z,55.50
2023-05-02T08:27:52.150Z,52.70
2023-05-02T08:28:52.445Z,53.00
2023-05-02T08:29:52.736Z,70.40
2023-05-02T08:30:52.992Z,62.00
2023-05-02T08:31:53.396Z,53.60
2023-05-02T08:32:53.502Z,52.50
2023-05-02T08:33:53.751Z,54.60
2023-05-02T08:34:54.000Z,55.80
2023-05-02T08:35:54.340Z,50.20
2023-05-02T08:36:56.871Z,49.70
2023-05-02T08:37:54.864Z,51.80
2023-05-02T08:38:55.112Z,51.60
2023-05-02T08:39:55.408Z,50.40
2023-05-02T08:40:55.643Z,47.00
2023-05-02T08:41:55.865Z,49.90
2023-05-02T08:42:56.101Z,50.90
2023-05-02T08:43:56.526Z,49.90
2023-05-02T08:44:56.708Z,46.20
2023-05-02T08:45:57.030Z,47.50
2023-05-02T08:46:57.313Z,47.90
2023-05-02T08:47:57.644Z,45.20
2023-05-02T08:48:57.876Z,47.50
2023-05-02T08:49:58.440Z,40.30
2023-05-02T08:50:58.357Z,41.40
2023-05-02T08:51:58.761Z,38.50
2023-05-02T08:52:58.876Z,37.40
2023-05-02T08:53:59.309Z,53.20
2023-05-02T08:54:59.729Z,48.10
2023-05-02T08:55:59.746Z,44.70
2023-05-02T08:57:00.474Z,47.50
2023-05-02T08:58:00.377Z,44.40
2023-05-02T08:59:00.820Z,50.10
2023-05-02T09:00:01.081Z,44.40
2023-05-02T09:01:01.399Z,43.40
2023-05-02T09:02:01.720Z,40.50
2023-05-02T09:03:01.935Z,41.50
2023-05-02T09:04:02.180Z,44.00
2023-05-02T09:05:02.669Z,42.50
2023-05-02T09:06:02.706Z,45.10
2023-05-02T09:07:02.990Z,45.90
2023-05-02T09:08:03.316Z,43.90
2023-05-02T09:09:04.543Z,43.10
2023-05-02T09:10:03.932Z,42.10
2023-05-02T09:11:04.184Z,42.40
2023-05-02T09:12:04.449Z,43.00
2023-05-02T09:13:04.682Z,47.10
2023-05-02T09:14:04.962Z,41.70
2023-05-02T09:15:05.162Z,41.60
2023-05-02T09:16:05.491Z,43.70
2023-05-02T09:17:05.694Z,41.00
2023-05-02T09:18:06.071Z,42.80
2023-05-02T09:19:06.340Z,42.80
2023-05-02T09:20:06.586Z,44.50
2023-05-02T09:21:06.858Z,41.40
2023-05-02T09:22:07.128Z,45.30
2023-05-02T09:23:07.390Z,42.60
2023-05-02T09:24:07.737Z,41.40
2023-05-02T09:25:07.929Z,41.00
2023-05-02T09:26:08.206Z,42.60
2023-05-02T09:27:08.443Z,44.50
2023-05-02T09:28:08.852Z,42.50
2023-05-02T09:29:09.127Z,40.80
2023-05-02T09:30:09.658Z,42.00
2023-05-02T09:31:09.770Z,42.10
2023-05-02T09:32:10.127Z,45.10
2023-05-02T09:33:10.416Z,41.80
2023-05-02T09:34:11.662Z,42.50
2023-05-02T09:35:10.985Z,40.20
2023-05-02T09:36:11.205Z,42.20
2023-05-02T09:37:11.648Z,40.00
2023-05-02T09:38:11.700Z,41.40
2023-05-02T09:39:12.501Z,43.20
2023-05-02T09:40:12.629Z,41.10
2023-05-02T09:41:12.871Z,42.20
2023-05-02T09:42:13.013Z,42.60
2023-05-02T09:43:13.177Z,44.80
2023-05-02T09:44:14.035Z,44.20
2023-05-02T09:45:13.709Z,38.90
2023-05-02T09:46:14.172Z,41.10
2023-05-02T09:47:17.760Z,42.90
2023-05-02T09:48:14.541Z,42.30
2023-05-02T09:49:14.886Z,40.70
2023-05-02T09:50:15.146Z,44.50
2023-05-02T09:51:15.289Z,43.60
2023-05-02T09:52:15.767Z,40.60
2023-05-02T09:53:16.193Z,38.10
2023-05-02T09:54:16.266Z,37.70
2023-05-02T09:55:16.518Z,38.60
2023-05-02T09:56:16.777Z,38.40
2023-05-02T09:57:17.046Z,37.90
2023-05-02T09:58:17.410Z,39.20
2023-05-02T09:59:17.563Z,39.20
2023-05-02T10:00:18.007Z,37.70
2023-05-02T10:01:19.227Z,37.30
2023-05-02T10:02:18.599Z,38.40
2023-05-02T10:03:19.035Z,38.00
2023-05-02T10:04:19.202Z,38.30
2023-05-02T10:05:19.508Z,37.40
2023-05-02T10:06:19.787Z,36.50
2023-05-02T10:07:20.033Z,40.00
2023-05-02T10:08:20.285Z,36.80
2023-05-02T10:09:21.871Z,38.00
2023-05-02T10:10:20.862Z,38.10
2023-05-02T10:11:21.183Z,41.00
2023-05-02T10:12:21.503Z,36.90
2023-05-02T10:13:21.917Z,37.40
2023-05-02T10:14:21.986Z,39.60
2023-05-02T10:15:22.232Z,39.20
2023-05-02T10:16:22.658Z,37.30
2023-05-02T10:17:22.922Z,37.10
2023-05-02T10:18:23.113Z,38.80
2023-05-02T10:19:23.400Z,36.00
2023-05-02T10:20:23.914Z,41.40
2023-05-02T10:21:23.966Z,42.30
2023-05-02T10:22:24.380Z,37.50
2023-05-02T10:23:24.710Z,40.40
2023-05-02T10:24:24.942Z,37.70
2023-05-02T10:25:25.171Z,36.50
2023-05-02T10:26:25.540Z,36.40
2023-05-02T10:27:25.828Z,35.00
2023-05-02T10:28:26.041Z,31.90
2023-05-02T10:29:26.362Z,35.30
2023-05-02T10:30:26.600Z,33.00
2023-05-02T10:31:26.870Z,32.40
2023-05-02T10:32:27.174Z,31.80
2023-05-02T10:33:27.447Z,28.40
2023-05-02T10:34:27.700Z,31.20
2023-05-02T10:35:28.217Z,25.00
2023-05-02T10:36:28.340Z,23.40
2023-05-02T10:37:28.570Z,22.60
2023-05-02T10:38:28.838Z,20.50
2023-05-02T10:39:29.123Z,22.00
2023-05-02T10:40:29.388Z,19.20
2023-05-02T10:41:29.714Z,17.90
2023-05-02T10:42:29.964Z,18.80
2023-05-02T10:43:30.255Z,20.20
2023-05-02T10:44:30.481Z,21.80
2023-05-02T10:45:30.750Z,19.20
2023-05-02T10:46:31.261Z,19.90
2023-05-02T10:47:31.309Z,21.10
2023-05-02T10:48:31.700Z,20.80
2023-05-02T10:49:31.812Z,21.10
2023-05-02T10:50:32.075Z,22.10
2023-05-02T10:51:32.381Z,21.90
2023-05-02T10:52:32.627Z,20.60
2023-05-02T10:53:32.906Z,20.70
2023-05-02T10:54:33.204Z,23.10
2023-05-02T10:55:33.463Z,20.50
2023-05-02T10:56:33.729Z,21.80
2023-05-02T10:57:34.049Z,23.70
2023-05-02T10:58:34.319Z,23.50
2023-05-02T10:59:34.774Z,23.00
2023-05-02T11:00:35.757Z,22.40
2023-05-02T11:01:35.120Z,26.90
2023-05-02T11:02:35.480Z,25.70
2023-05-02T11:03:35.839Z,26.50
2023-05-02T11:04:36.030Z,25.30
2023-05-02T11:05:36.301Z,21.50
2023-05-02T11:06:36.683Z,18.10
2023-05-02T11:07:36.904Z,17.10
2023-05-02T11:08:37.658Z,18.50
2023-05-02T11:09:37.672Z,17.80
2023-05-02T11:10:37.717Z,19.50
2023-05-02T11:11:37.938Z,19.50
2023-05-02T11:12:38.380Z,20.60
2023-05-02T11:13:38.712Z,20.50
2023-05-02T11:14:38.935Z,19.30
2023-05-02T11:15:39.206Z,18.70
2023-05-02T11:16:39.475Z,16.30
2023-05-02T11:17:39.710Z,17.00
2023-05-02T11:18:39.938Z,20.60
2023-05-02T11:19:40.260Z,20.30
2023-05-02T11:20:40.638Z,20.90
2023-05-02T11:21:40.788Z,19.80
2023-05-02T11:22:41.217Z,20.80
2023-05-02T11:23:41.293Z,21.90
2023-05-02T11:24:41.639Z,22.10
2023-05-02T11:25:42.048Z,20.20
2023-05-02T11:26:42.137Z,19.90
2023-05-02T11:27:42.439Z,21.60
2023-05-02T11:28:42.735Z,20.70
2023-05-02T11:29:42.960Z,21.80
2023-05-02T11:30:43.274Z,21.50
2023-05-02T11:31:43.509Z,17.20
2023-05-02T11:32:43.885Z,19.40
2023-05-02T11:33:43.949Z,16.90
2023-05-02T11:34:44.205Z,17.20
2023-05-02T11:35:44.603Z,17.50
2023-05-02T11:36:44.731Z,19.60
2023-05-02T11:37:45.073Z,19.50
2023-05-02T11:38:45.424Z,17.90
2023-05-02T11:39:45.661Z,19.70
2023-05-02T11:40:45.917Z,19.30
2023-05-02T11:41:46.238Z,17.10
2023-05-02T11:42:46.452Z,17.90
2023-05-02T11:43:46.741Z,16.60
2023-05-02T11:44:46.991Z,17.80
2023-05-02T11:45:47.261Z,18.50
2023-05-02T11:46:47.577Z,18.60
2023-05-02T11:47:47.837Z,17.40
2023-05-02T11:48:48.323Z,16.90
2023-05-02T11:49:48.322Z,17.40
2023-05-02T11:50:50.355Z,18.50
2023-05-02T11:51:48.982Z,18.70
2023-05-02T11:52:49.822Z,18.60
2023-05-02T11:53:49.589Z,18.20
2023-05-02T11:54:49.825Z,19.00
2023-05-02T11:55:50.161Z,17.50
2023-05-02T11:56:50.444Z,18.40
2023-05-02T11:57:51.650Z,16.20
2023-05-02T11:58:50.979Z,15.30
2023-05-02T11:59:51.247Z,18.80
2023-05-02T12:00:51.515Z,15.80
2023-05-02T12:01:51.785Z,19.60
2023-05-02T12:02:52.087Z,19.80
2023-05-02T12:03:52.356Z,16.50
2023-05-02T12:04:52.640Z,14.60
2023-05-02T12:05:52.912Z,11.60
2023-05-02T12:06:53.256Z,13.20
2023-05-02T12:07:53.476Z,12.90
2023-05-02T12:08:53.784Z,13.80
2023-05-02T12:09:54.003Z,16.30
2023-05-02T12:10:54.316Z,16.90
2023-05-02T12:11:54.554Z,14.50
2023-05-02T12:12:54.779Z,16.00
2023-05-02T12:13:55.079Z,14.20
2023-05-02T12:14:55.355Z,14.60
2023-05-02T12:15:55.855Z,14.90
2023-05-02T12:16:55.855Z,14.10
2023-05-02T12:17:56.095Z,14.00
2023-05-02T12:18:56.330Z,16.50
2023-05-02T12:19:56.672Z,14.30
2023-05-02T12:20:56.871Z,16.50
2023-05-02T12:21:57.095Z,15.70
2023-05-02T12:22:57.588Z,15.50
2023-05-02T12:23:57.735Z,16.40
2023-05-02T12:24:57.941Z,17.40
2023-05-02T12:25:58.340Z,15.80
2023-05-02T12:26:58.589Z,16.30
2023-05-02T12:27:58.923Z,16.10
2023-05-02T12:28:59.228Z,14.50
2023-05-02T12:29:59.738Z,16.60
2023-05-02T12:30:59.865Z,15.00
2023-05-02T12:32:00.156Z,19.00
2023-05-02T12:33:00.400Z,16.60
2023-05-02T12:34:00.680Z,20.80
2023-05-02T12:35:00.851Z,16.50
2023-05-02T12:36:01.234Z,16.60
2023-05-02T12:37:01.572Z,18.30
2023-05-02T12:38:01.762Z,15.40
2023-05-02T12:39:02.186Z,16.70
2023-05-02T12:40:02.723Z,15.60
2023-05-02T12:41:02.814Z,14.50
2023-05-02T12:42:03.051Z,15.40
2023-05-02T12:43:03.361Z,16.30
2023-05-02T12:44:03.619Z,15.90
2023-05-02T12:45:03.928Z,17.90
2023-05-02T12:46:04.176Z,14.80
2023-05-02T12:47:05.402Z,23.10
2023-05-02T12:48:04.722Z,18.90
2023-05-02T12:49:04.949Z,16.50
2023-05-02T12:50:05.484Z,16.30
2023-05-02T12:51:05.580Z,15.50
2023-05-02T12:52:05.860Z,15.60
2023-05-02T12:53:06.069Z,16.90
2023-05-02T12:54:06.398Z,17.50
2023-05-02T12:55:06.657Z,14.20
2023-05-02T12:56:06.938Z,15.60
2023-05-02T12:57:07.193Z,14.10
2023-05-02T12:58:07.428Z,15.50
2023-05-02T12:59:07.642Z,17.00
2023-05-02T13:00:08.008Z,16.10